Terminal Aerodrome Forecast
Issued by NWS

Home | Current Version | Previous Version | Text Only | Print | Product List | Glossary On
Versions: 1 2 3 4 5 6 7 8 9 10 11 12 13 14 15 16 17 18
000
FTUS41 KGYX 192300
TAFPSM
TAF
KPSM 192320Z 2000/2024 33013G23KT P6SM FEW060 SCT250
     FM200100 35007KT P6SM SCT250
     FM201700 14012KT P6SM BKN250=

USA.gov is the U.S. government's official web portal to all federal, state and local government web resources and services.